Time;durP1;ratioP1;P1;durP2;ratioP2;P2;SDS_P1;SDS_P2;PMS_P1;PMS_P2;Temp;Humidity;BMP_temperature;BMP_pressure;BME280_temperature;BME280_humidity;BME280_pressure;Samples;Min_cycle;Max_cycle;Signal;HPM_P1;HPM_P2
2022/02/26 00:00:30;;;;;;;15.88;3.20;;;;;;;-0.89;94.54;103352.66;5055731;28;20108;-71
2022/02/26 00:02:56;;;;;;;18.98;4.00;;;;;;;-0.90;94.37;103353.56;5056322;28;20441;-71
2022/02/26 00:05:22;;;;;;;16.58;3.60;;;;;;;-0.96;94.28;103350.06;5055860;28;20091;-71
2022/02/26 00:07:47;;;;;;;16.30;3.00;;;;;;;-1.02;93.86;103357.94;5055947;28;20037;-70
2022/02/26 00:10:13;;;;;;;13.60;3.25;;;;;;;-1.07;93.82;103364.03;5056189;28;20037;-70
2022/02/26 00:12:39;;;;;;;10.68;3.00;;;;;;;-1.09;94.04;103372.72;5055514;28;20087;-71
2022/02/26 00:15:05;;;;;;;20.30;3.70;;;;;;;-1.11;94.53;103372.72;5055810;28;20041;-71
2022/02/26 00:17:30;;;;;;;11.20;3.53;;;;;;;-1.15;94.85;103371.00;5066918;28;20377;-71
2022/02/26 00:19:56;;;;;;;24.90;3.78;;;;;;;-1.19;94.64;103368.41;5075733;28;20040;-71
2022/02/26 00:22:21;;;;;;;19.75;4.18;;;;;;;-1.23;94.49;103367.53;5076298;28;20415;-71
2022/02/26 00:24:47;;;;;;;12.55;3.13;;;;;;;-1.23;94.82;103372.75;5075619;28;20028;-71
2022/02/26 00:27:12;;;;;;;17.30;3.58;;;;;;;-1.23;95.03;103377.09;5057486;28;20086;-71
2022/02/26 00:29:38;;;;;;;17.73;3.70;;;;;;;-1.23;94.64;103371.88;5075120;28;20082;-71
2022/02/26 00:32:04;;;;;;;11.45;3.28;;;;;;;-1.27;94.21;103374.50;5057653;28;20032;-71
2022/02/26 00:34:30;;;;;;;13.10;3.75;;;;;;;-1.33;93.83;103377.13;5075283;28;20094;-71
2022/02/26 00:36:55;;;;;;;19.98;4.43;;;;;;;-1.35;94.05;103378.84;5075022;28;20469;-70
2022/02/26 00:39:21;;;;;;;26.05;3.95;;;;;;;-1.33;94.58;103381.44;5075462;28;20033;-71
2022/02/26 00:41:46;;;;;;;16.92;3.67;;;;;;;-1.33;94.79;103378.84;5075529;28;20037;-71
2022/02/26 00:44:11;;;;;;;10.07;3.25;;;;;;;-1.39;94.63;103373.63;5075240;28;20033;-72
2022/02/26 00:46:37;;;;;;;15.70;3.38;;;;;;;-1.47;94.31;103381.47;5075369;28;20368;-70
2022/02/26 00:51:48;;;;;;;11.95;3.10;;;;;;;-1.60;93.49;103383.16;5075145;28;20038;-71
2022/02/26 00:54:14;;;;;;;18.63;3.72;;;;;;;-1.62;93.33;103382.31;5057845;28;20037;-70
2022/02/26 00:56:41;;;;;;;8.85;3.65;;;;;;;-1.68;92.83;103383.16;5074553;28;20028;-70
2022/02/26 00:59:07;;;;;;;17.15;3.80;;;;;;;-1.74;92.73;103380.56;5074508;28;20521;-70
2022/02/26 01:01:32;;;;;;;11.05;3.30;;;;;;;-1.81;92.62;103376.19;5057095;28;20036;-70
2022/02/26 01:03:58;;;;;;;14.57;3.45;;;;;;;-1.87;92.28;103384.88;5075038;28;20032;-70
2022/02/26 01:06:23;;;;;;;9.43;4.10;;;;;;;-1.93;92.13;103373.56;5074813;28;20419;-71
2022/02/26 01:08:49;;;;;;;12.50;2.95;;;;;;;-1.99;92.37;103377.88;5057184;28;20064;-70
2022/02/26 01:11:14;;;;;;;19.42;3.55;;;;;;;-2.03;92.32;103372.66;5075039;28;20159;-69
2022/02/26 01:13:39;;;;;;;17.33;3.50;;;;;;;-2.08;92.53;103377.84;5056765;28;20457;-70
2022/02/26 01:16:05;;;;;;;14.23;3.38;;;;;;;-2.14;92.41;103370.88;5074348;28;20035;-70
2022/02/26 01:18:30;;;;;;;18.38;3.80;;;;;;;-2.17;92.16;103376.06;5056678;28;20051;-71
2022/02/26 01:20:56;;;;;;;11.98;3.00;;;;;;;-2.23;92.48;103368.25;5074487;28;20036;-71
2022/02/26 01:23:21;;;;;;;10.88;3.10;;;;;;;-2.28;92.54;103363.88;5074717;28;20399;-71
2022/02/26 01:25:47;;;;;;;18.65;3.53;;;;;;;-2.33;92.89;103369.94;5074456;28;20044;-71
2022/02/26 01:28:12;;;;;;;11.45;3.22;;;;;;;-2.33;93.11;103374.28;5074437;28;20032;-72
2022/02/26 01:30:37;;;;;;;17.52;4.38;;;;;;;-2.32;93.78;103369.06;5056115;28;20043;-72
2022/02/26 01:33:03;;;;;;;10.18;3.40;;;;;;;-2.36;93.27;103375.16;5074506;28;20449;-70
2022/02/26 01:35:28;;;;;;;10.32;3.38;;;;;;;-2.41;93.09;103371.66;5074031;28;20392;-71
2022/02/26 01:37:54;;;;;;;19.90;3.75;;;;;;;-2.43;92.85;103375.09;5073921;28;20032;-70
2022/02/26 01:40:19;;;;;;;16.63;3.60;;;;;;;-2.40;93.42;103378.63;5073993;28;20447;-71
2022/02/26 01:42:45;;;;;;;12.55;3.33;;;;;;;-2.36;94.21;103382.97;5073842;28;20039;-72
2022/02/26 01:45:15;;;;;;;10.48;3.08;;;;;;;-2.32;94.62;103386.47;5056114;28;20530;-72
2022/02/26 01:47:42;;;;;;;15.40;3.72;;;;;;;-2.26;95.00;103404.75;5074150;28;20111;-72
2022/02/26 01:50:08;;;;;;;23.63;3.83;;;;;;;-2.20;95.25;103396.94;5074203;28;20126;-72
2022/02/26 01:52:35;;;;;;;14.40;3.63;;;;;;;-2.16;94.98;103401.31;5073718;28;20040;-73
2022/02/26 01:55:04;;;;;;;13.30;3.83;;;;;;;-2.15;95.25;103399.56;5039545;28;20041;-72
2022/02/26 01:57:29;;;;;;;17.55;4.35;;;;;;;-2.17;95.66;103410.00;5073855;28;20028;-74
2022/02/26 01:59:55;;;;;;;19.63;4.18;;;;;;;-2.20;95.27;103394.31;5055875;28;20032;-72
2022/02/26 02:02:21;;;;;;;17.67;3.72;;;;;;;-2.23;95.21;103394.31;5073781;28;20056;-72
2022/02/26 02:04:46;;;;;;;12.40;3.65;;;;;;;-2.27;94.91;103382.13;5055680;28;20032;-72
2022/02/26 02:07:12;;;;;;;12.35;3.00;;;;;;;-2.31;94.71;103385.59;5073634;28;20028;-71
2022/02/26 02:09:38;;;;;;;19.33;3.67;;;;;;;-2.33;94.59;103375.16;5072264;28;20110;-71
2022/02/26 02:12:05;;;;;;;15.40;3.60;;;;;;;-2.35;94.45;103378.63;5056025;28;20035;-71
2022/02/26 02:14:30;;;;;;;11.88;3.20;;;;;;;-2.35;94.44;103381.25;5055797;28;20025;-71
2022/02/26 02:16:56;;;;;;;12.43;3.35;;;;;;;-2.35;94.88;103389.91;5054362;28;20573;-71
2022/02/26 02:19:24;;;;;;;18.30;3.45;;;;;;;-2.34;95.00;103394.28;5073694;28;20040;-70
2022/02/26 02:21:50;;;;;;;9.50;2.85;;;;;;;-2.35;95.30;103394.28;5073744;28;20033;-71
2022/02/26 02:24:15;;;;;;;12.95;3.38;;;;;;;-2.42;95.08;103385.53;5055687;28;20087;-71
2022/02/26 02:26:41;;;;;;;12.38;3.83;;;;;;;-2.49;94.79;103389.88;5073630;28;20039;-70
2022/02/26 02:29:07;;;;;;;12.90;3.20;;;;;;;-2.54;94.40;103391.59;5039167;28;20036;-70
2022/02/26 02:31:32;;;;;;;11.52;2.88;;;;;;;-2.58;94.35;103399.34;5073812;28;20372;-71
2022/02/26 02:33:59;;;;;;;15.95;3.53;;;;;;;-2.62;94.19;103402.84;5074157;28;20040;-71
2022/02/26 02:36:24;;;;;;;10.48;3.22;;;;;;;-2.64;94.51;103400.22;5073713;28;20081;-70
2022/02/26 02:38:49;;;;;;;18.02;4.60;;;;;;;-2.66;94.46;103405.44;5055674;28;20036;-71
2022/02/26 02:41:15;;;;;;;16.13;3.28;;;;;;;-2.68;94.62;103409.75;5073031;28;20481;-71
2022/02/26 02:43:41;;;;;;;15.70;3.30;;;;;;;-2.68;94.89;103414.94;5073919;28;20129;-71
2022/02/26 02:46:06;;;;;;;16.45;3.40;;;;;;;-2.67;95.26;103414.09;5055593;28;20032;-71
2022/02/26 02:48:32;;;;;;;27.05;4.22;;;;;;;-2.67;95.26;103415.84;5055247;28;20032;-71
2022/02/26 02:50:58;;;;;;;19.77;4.72;;;;;;;-2.63;95.07;103422.78;5072798;28;20488;-71
2022/02/26 02:53:24;;;;;;;13.60;4.30;;;;;;;-2.60;94.46;103415.00;5055173;28;20473;-71
2022/02/26 02:55:51;;;;;;;15.55;3.22;;;;;;;-2.59;94.31;103410.69;5054873;28;20036;-71
2022/02/26 02:58:24;;;;;;;18.35;4.15;;;;;;;-2.60;94.25;103412.38;5073713;28;20060;-71
2022/02/26 03:00:50;;;;;;;14.30;3.80;;;;;;;-2.62;94.14;103419.34;5073057;28;20029;-71
2022/02/26 03:03:17;;;;;;;13.82;3.35;;;;;;;-2.65;93.90;103416.72;5072986;28;20090;-72
2022/02/26 03:05:42;;;;;;;9.65;2.72;;;;;;;-2.68;93.78;103427.13;5054790;28;20029;-72
2022/02/26 03:08:08;;;;;;;13.43;3.75;;;;;;;-2.72;93.87;103430.56;5055621;28;20031;-71
2022/02/26 03:10:33;;;;;;;11.82;3.20;;;;;;;-2.76;94.15;103429.69;5073045;28;20028;-72
2022/02/26 03:12:58;;;;;;;15.13;2.92;;;;;;;-2.79;94.09;103423.56;5073214;28;20028;-71
2022/02/26 03:15:24;;;;;;;16.35;3.65;;;;;;;-2.84;94.18;103427.03;5072921;28;20123;-71
2022/02/26 03:17:51;;;;;;;11.40;3.20;;;;;;;-2.86;94.26;103426.13;5072985;28;20048;-72
2022/02/26 03:20:17;;;;;;;11.88;2.90;;;;;;;-2.90;94.14;103432.19;5073394;28;20028;-72
2022/02/26 03:22:42;;;;;;;15.75;3.25;;;;;;;-2.92;94.31;103426.09;5076707;28;20074;-73
2022/02/26 03:25:08;;;;;;;16.88;3.83;;;;;;;-2.92;94.77;103425.22;5076530;28;20036;-72
2022/02/26 03:27:33;;;;;;;9.30;2.78;;;;;;;-2.96;94.63;103428.66;5076795;28;20432;-71
2022/02/26 03:29:59;;;;;;;13.93;3.60;;;;;;;-2.98;94.96;103444.28;5076617;28;20043;-71
2022/02/26 03:32:25;;;;;;;13.55;3.05;;;;;;;-2.98;95.20;103439.06;5077116;28;20515;-71
2022/02/26 03:34:51;;;;;;;11.48;2.97;;;;;;;-2.99;95.66;103446.88;5077247;28;20119;-72
2022/02/26 03:37:17;;;;;;;15.65;3.35;;;;;;;-3.02;95.70;103455.53;5076622;28;20032;-70
2022/02/26 03:39:42;;;;;;;15.93;3.45;;;;;;;-3.08;95.88;103445.94;5076374;28;20074;-71
2022/02/26 03:42:08;;;;;;;12.00;3.13;;;;;;;-3.08;96.10;103455.50;5077140;28;20024;-73
2022/02/26 03:44:36;;;;;;;18.38;3.97;;;;;;;-3.11;95.95;103463.28;5076431;28;20047;-72
2022/02/26 03:47:02;;;;;;;10.90;3.25;;;;;;;-3.11;96.35;103461.53;5076227;28;20111;-72
2022/02/26 03:49:28;;;;;;;9.77;3.38;;;;;;;-3.12;96.61;103458.91;5076286;28;20033;-72
2022/02/26 03:51:54;;;;;;;11.98;3.88;;;;;;;-3.11;96.73;103460.66;5076139;28;20039;-73
2022/02/26 03:54:20;;;;;;;21.15;3.88;;;;;;;-3.08;97.40;103461.56;5076639;28;20356;-72
2022/02/26 03:56:46;;;;;;;20.40;4.50;;;;;;;-2.92;97.54;103459.97;5075882;28;20029;-73
2022/02/26 03:59:12;;;;;;;22.25;4.50;;;;;;;-2.83;97.95;103456.56;5057937;28;20039;-72
2022/02/26 04:01:37;;;;;;;16.58;3.72;;;;;;;-2.79;98.77;103458.34;5076296;28;20035;-71
2022/02/26 04:04:03;;;;;;;13.93;3.65;;;;;;;-2.79;98.53;103465.25;5058578;28;20032;-72
2022/02/26 04:06:29;;;;;;;17.42;4.15;;;;;;;-2.80;98.99;103460.94;5075748;28;20037;-70
2022/02/26 04:08:55;;;;;;;21.77;4.40;;;;;;;-2.80;99.08;103461.78;5075714;28;20043;-71
2022/02/26 04:11:20;;;;;;;22.77;4.20;;;;;;;-2.71;99.07;103468.81;5057830;28;20029;-71
2022/02/26 04:13:46;;;;;;;20.52;4.18;;;;;;;-2.59;99.58;103468.88;5075891;28;20082;-72
2022/02/26 04:16:11;;;;;;;20.20;4.35;;;;;;;-2.52;99.75;103467.22;5075639;28;20067;-71
2022/02/26 04:18:36;;;;;;;25.60;3.75;;;;;;;-2.50;99.69;103470.69;5075536;28;20124;-71
2022/02/26 04:21:02;;;;;;;13.75;3.53;;;;;;;-2.48;99.92;103468.94;5076284;28;20068;-71
2022/02/26 04:23:27;;;;;;;23.65;4.38;;;;;;;-2.46;99.88;103477.69;5076234;28;20048;-71
2022/02/26 04:25:53;;;;;;;17.70;4.13;;;;;;;-2.44;99.82;103470.72;5041335;28;20042;-72
2022/02/26 04:28:18;;;;;;;12.55;3.88;;;;;;;-2.44;100.00;103469.84;5058022;28;20123;-74
2022/02/26 04:30:44;;;;;;;22.30;4.43;;;;;;;-2.46;99.71;103466.34;5075276;28;20067;-71
2022/02/26 04:33:10;;;;;;;18.83;4.53;;;;;;;-2.46;99.58;103477.69;5074374;28;20033;-71
2022/02/26 04:35:36;;;;;;;20.08;5.40;;;;;;;-2.43;99.63;103467.25;5057542;28;20047;-71
2022/02/26 04:38:02;;;;;;;30.48;4.43;;;;;;;-2.40;99.51;103472.50;5075503;28;20109;-71
2022/02/26 04:40:27;;;;;;;17.83;4.20;;;;;;;-2.42;99.62;103475.94;5058108;28;20067;-73
2022/02/26 04:42:53;;;;;;;14.35;4.43;;;;;;;-2.46;99.53;103475.06;5074938;28;20104;-72
2022/02/26 04:45:18;;;;;;;17.85;4.10;;;;;;;-2.48;99.48;103471.56;5075338;28;20119;-71
2022/02/26 04:47:45;;;;;;;16.80;4.43;;;;;;;-2.49;99.64;103472.44;5075308;28;20392;-71
2022/02/26 04:50:13;;;;;;;13.05;4.30;;;;;;;-2.47;99.15;103473.31;5075107;28;20032;-71
2022/02/26 04:52:39;;;;;;;11.52;4.20;;;;;;;-2.49;98.96;103475.91;5075534;28;20078;-71
2022/02/26 04:55:06;;;;;;;12.70;4.47;;;;;;;-2.53;98.99;103475.88;5075214;28;20032;-71
2022/02/26 04:57:32;;;;;;;12.88;4.25;;;;;;;-2.60;98.86;103480.16;5074704;28;20150;-71
2022/02/26 04:59:57;;;;;;;15.95;4.95;;;;;;;-2.64;98.63;103475.81;5074985;28;20476;-71
2022/02/26 05:02:22;;;;;;;16.75;4.15;;;;;;;-2.69;98.58;103477.50;5057393;28;20070;-71
2022/02/26 05:04:48;;;;;;;17.25;4.38;;;;;;;-2.75;98.96;103480.94;5057264;28;20528;-71
2022/02/26 05:07:15;;;;;;;12.35;4.43;;;;;;;-2.81;98.71;103488.69;5075298;28;20029;-71
2022/02/26 05:09:42;;;;;;;12.93;4.20;;;;;;;-2.88;98.90;103484.28;5074746;28;20029;-71
2022/02/26 05:12:08;;;;;;;20.95;4.80;;;;;;;-2.93;98.82;103492.09;5057512;28;20036;-72
2022/02/26 05:14:34;;;;;;;16.08;4.35;;;;;;;-2.95;98.63;103492.94;5074549;28;20457;-71
2022/02/26 05:16:59;;;;;;;12.98;4.03;;;;;;;-2.99;98.86;103491.16;5074467;28;20031;-71
2022/02/26 05:19:25;;;;;;;12.88;3.70;;;;;;;-3.07;98.86;103494.56;5074621;28;20060;-71
2022/02/26 05:21:50;;;;;;;11.30;3.67;;;;;;;-3.11;98.71;103499.75;5074523;28;20454;-71
2022/02/26 05:24:16;;;;;;;10.60;3.65;;;;;;;-3.14;98.80;103503.19;5074123;28;20036;-71
2022/02/26 05:26:41;;;;;;;14.52;4.57;;;;;;;-3.17;98.74;103516.19;5074271;28;20036;-71
2022/02/26 05:29:07;;;;;;;10.70;3.47;;;;;;;-3.20;98.51;103513.56;5074115;28;20423;-71
2022/02/26 05:31:33;;;;;;;9.52;3.83;;;;;;;-3.23;98.67;103518.72;5074878;28;20028;-71
2022/02/26 05:33:58;;;;;;;17.20;4.18;;;;;;;-3.28;98.55;103523.91;5073908;28;20036;-71
2022/02/26 05:36:24;;;;;;;13.60;3.75;;;;;;;-3.30;98.32;103522.13;5074206;28;20074;-71
2022/02/26 05:38:49;;;;;;;14.35;4.35;;;;;;;-3.36;98.19;103520.31;5074229;28;20091;-71
2022/02/26 05:41:14;;;;;;;9.98;3.40;;;;;;;-3.39;97.96;103517.69;5073788;28;20033;-71
2022/02/26 05:43:40;;;;;;;15.30;4.07;;;;;;;-3.42;97.75;103520.25;5074139;28;20113;-71
2022/02/26 05:46:05;;;;;;;10.48;3.85;;;;;;;-3.45;97.50;103517.63;5074272;28;20123;-71
2022/02/26 05:48:31;;;;;;;10.95;3.13;;;;;;;-3.47;97.71;103524.56;5074217;28;20033;-71
2022/02/26 05:50:56;;;;;;;17.98;4.03;;;;;;;-3.50;97.50;103530.59;5074066;28;20453;-71
2022/02/26 05:53:22;;;;;;;12.32;3.50;;;;;;;-3.53;97.71;103520.16;5073880;28;20035;-71
2022/02/26 05:55:48;;;;;;;6.82;2.97;;;;;;;-3.58;97.53;103525.31;5074293;28;20105;-71
2022/02/26 05:58:13;;;;;;;9.23;3.63;;;;;;;-3.61;97.59;103522.66;5073978;28;20111;-71
2022/02/26 06:00:38;;;;;;;12.25;3.55;;;;;;;-3.64;97.68;103524.34;5074067;28;20075;-71
2022/02/26 06:03:04;;;;;;;11.82;3.47;;;;;;;-3.68;97.57;103541.66;5073363;28;20036;-71
2022/02/26 06:05:29;;;;;;;7.30;3.65;;;;;;;-3.69;97.35;103526.03;5073664;28;20111;-71
2022/02/26 06:07:54;;;;;;;18.35;4.85;;;;;;;-3.72;97.12;103529.47;5073583;28;20040;-71
2022/02/26 06:10:20;;;;;;;23.65;8.43;;;;;;;-3.74;97.52;103531.19;5074083;28;20378;-71
2022/02/26 06:12:45;;;;;;;24.17;8.60;;;;;;;-3.77;97.22;103529.41;5073406;28;20063;-71
2022/02/26 06:15:11;;;;;;;17.40;7.20;;;;;;;-3.79;96.82;103538.94;5055558;28;20048;-71
2022/02/26 06:17:37;;;;;;;19.30;6.20;;;;;;;-3.81;96.80;103535.41;5039006;28;20037;-71
2022/02/26 06:20:04;;;;;;;15.55;5.20;;;;;;;-3.79;96.89;103531.13;5056043;28;20054;-74
2022/02/26 06:22:30;;;;;;;14.95;5.05;;;;;;;-3.82;96.66;103538.91;5073425;28;20028;-71
2022/02/26 06:24:55;;;;;;;8.05;3.90;;;;;;;-3.83;97.09;103544.06;5073143;28;20086;-72
2022/02/26 06:27:20;;;;;;;13.63;4.05;;;;;;;-3.86;97.28;103541.44;5073330;28;20081;-71
2022/02/26 06:29:46;;;;;;;14.32;4.13;;;;;;;-3.85;96.57;103543.16;5074044;28;20033;-70
2022/02/26 06:32:11;;;;;;;8.18;3.55;;;;;;;-3.88;96.78;103544.03;5073574;28;20056;-72
2022/02/26 06:34:37;;;;;;;7.75;3.60;;;;;;;-3.88;96.77;103543.13;5074088;28;20074;-71
2022/02/26 06:37:03;;;;;;;7.93;3.65;;;;;;;-3.90;97.09;103549.19;5074062;28;20029;-71
2022/02/26 06:39:28;;;;;;;8.32;3.58;;;;;;;-3.91;96.90;103547.44;5055498;28;20036;-72
2022/02/26 06:41:53;;;;;;;9.70;3.55;;;;;;;-3.92;97.12;103550.91;5073711;28;20405;-71
2022/02/26 06:44:19;;;;;;;6.10;3.35;;;;;;;-3.92;97.08;103555.22;5073567;28;20060;-71
2022/02/26 06:46:45;;;;;;;8.85;3.38;;;;;;;-3.92;96.81;103550.91;5073565;28;20052;-73
2022/02/26 06:49:10;;;;;;;7.43;3.13;;;;;;;-3.90;97.21;103554.41;5073643;28;20074;-71
2022/02/26 06:51:36;;;;;;;9.27;3.20;;;;;;;-3.87;97.05;103565.69;5073159;28;20029;-70
2022/02/26 06:54:02;;;;;;;5.50;2.83;;;;;;;-3.87;97.39;103571.75;5073180;28;20028;-71
2022/02/26 06:56:27;;;;;;;8.77;3.63;;;;;;;-3.86;97.61;103565.72;5075254;28;20097;-71
2022/02/26 06:58:53;;;;;;;11.40;4.80;;;;;;;-3.84;97.57;103565.75;5077552;28;20032;-71
2022/02/26 07:01:19;;;;;;;7.15;4.30;;;;;;;-3.82;97.56;103571.81;5077253;28;20530;-70
2022/02/26 07:03:44;;;;;;;8.98;4.18;;;;;;;-3.77;98.04;103580.59;5077206;28;20028;-71
2022/02/26 07:06:09;;;;;;;14.57;5.03;;;;;;;-3.72;97.85;103574.59;5059067;28;20032;-72
2022/02/26 07:08:35;;;;;;;10.10;4.43;;;;;;;-3.66;98.58;103581.56;5077582;28;20115;-71
2022/02/26 07:11:00;;;;;;;13.30;4.45;;;;;;;-3.61;98.97;103576.47;5077074;28;20039;-73
2022/02/26 07:13:26;;;;;;;10.40;4.07;;;;;;;-3.58;99.43;103579.97;5076888;28;20071;-71
2022/02/26 07:15:51;;;;;;;7.22;3.83;;;;;;;-3.53;99.61;103586.97;5076889;28;20460;-72
2022/02/26 07:18:17;;;;;;;6.75;3.63;;;;;;;-3.50;99.83;103581.78;5058728;28;20035;-73
2022/02/26 07:20:42;;;;;;;7.95;4.00;;;;;;;-3.46;100.00;103591.38;5059322;28;20415;-72
2022/02/26 07:23:07;;;;;;;7.65;3.85;;;;;;;-3.40;99.87;103588.88;5058783;28;20028;-72
2022/02/26 07:25:33;;;;;;;5.15;3.17;;;;;;;-3.31;100.00;103588.97;5076602;28;20025;-75
2022/02/26 07:27:58;;;;;;;7.43;3.67;;;;;;;-3.21;100.00;103590.81;5058706;28;20469;-72
2022/02/26 07:30:24;;;;;;;9.02;3.83;;;;;;;-3.12;100.00;103584.84;5042445;28;20029;-72
2022/02/26 07:32:49;;;;;;;11.30;4.30;;;;;;;-3.04;100.00;103595.34;5058639;28;20457;-73
2022/02/26 07:35:15;;;;;;;11.38;4.30;;;;;;;-2.95;100.00;103599.78;5076985;28;20531;-74
2022/02/26 07:37:43;;;;;;;7.85;3.70;;;;;;;-2.87;100.00;103593.75;5076637;28;20064;-73
2022/02/26 07:40:10;;;;;;;14.90;4.97;;;;;;;-2.77;100.00;103594.72;5076349;28;20025;-74
2022/02/26 07:42:36;;;;;;;11.13;4.22;;;;;;;-2.66;100.00;103590.50;5076558;28;20032;-74
2022/02/26 07:45:01;;;;;;;11.75;5.30;;;;;;;-2.51;100.00;103600.19;5058377;28;20085;-72
2022/02/26 07:47:27;;;;;;;18.92;7.15;;;;;;;-2.31;100.00;103596.88;5058733;28;20032;-72
2022/02/26 07:49:52;;;;;;;18.92;7.10;;;;;;;-2.12;100.00;103590.03;5058666;28;20032;-72
2022/02/26 07:52:17;;;;;;;18.65;5.90;;;;;;;-1.92;100.00;103597.13;5076679;28;20036;-74
2022/02/26 07:54:43;;;;;;;22.92;7.13;;;;;;;-1.72;100.00;103603.31;5076670;28;20116;-71
2022/02/26 07:57:08;;;;;;;25.88;9.05;;;;;;;-1.47;100.00;103608.66;5075948;28;20032;-73
2022/02/26 07:59:34;;;;;;;29.42;9.02;;;;;;;-1.21;100.00;103597.44;5075962;28;20017;-72
2022/02/26 08:01:59;;;;;;;24.77;8.15;;;;;;;-0.97;100.00;103602.75;5075778;28;20404;-72
2022/02/26 08:04:28;;;;;;;25.10;8.45;;;;;;;-0.74;100.00;103601.91;5075991;28;20037;-72
2022/02/26 08:06:54;;;;;;;30.05;8.80;;;;;;;-0.55;100.00;103597.56;5075757;28;20032;-72
2022/02/26 08:09:19;;;;;;;44.33;12.25;;;;;;;-0.31;100.00;103606.25;5076135;28;20032;-73
2022/02/26 08:11:45;;;;;;;34.05;11.77;;;;;;;-0.13;100.00;103608.03;5075588;28;20032;-73
2022/02/26 08:14:10;;;;;;;30.23;10.55;;;;;;;0.03;100.00;103591.41;5076146;28;20051;-72
2022/02/26 08:16:36;;;;;;;22.10;10.23;;;;;;;0.19;100.00;103594.84;5076165;28;20041;-73
2022/02/26 08:19:01;;;;;;;34.70;11.60;;;;;;;0.34;100.00;103605.28;5075598;28;20053;-73
2022/02/26 08:21:27;;;;;;;46.83;14.07;;;;;;;0.51;100.00;103613.06;5076484;28;20120;-72
2022/02/26 08:23:52;;;;;;;44.47;13.57;;;;;;;0.65;100.00;103610.38;5076050;28;20029;-72
2022/02/26 08:26:19;;;;;;;43.10;16.60;;;;;;;0.83;100.00;103609.44;5075544;28;20055;-73
2022/02/26 08:28:45;;;;;;;50.53;17.27;;;;;;;0.96;100.00;103615.50;5075341;28;20082;-72
2022/02/26 08:31:11;;;;;;;55.20;20.27;;;;;;;1.13;100.00;103617.13;5075504;28;20075;-76
2022/02/26 08:33:36;;;;;;;58.10;20.85;;;;;;;1.35;100.00;103620.50;5075513;28;20461;-72
2022/02/26 08:36:02;;;;;;;55.92;22.65;;;;;;;1.50;100.00;103616.88;5075160;28;20377;-71
2022/02/26 08:38:28;;;;;;;61.10;21.30;;;;;;;1.63;100.00;103605.41;5075318;28;20054;-70
2022/02/26 08:40:53;;;;;;;57.63;23.02;;;;;;;1.79;100.00;103610.50;5076028;28;20456;-70
2022/02/26 08:43:18;;;;;;;57.75;21.48;;;;;;;1.94;100.00;103612.97;5075111;28;20029;-70
2022/02/26 08:45:44;;;;;;;44.97;19.50;;;;;;;2.07;100.00;103618.97;5057397;28;20040;-70
2022/02/26 08:48:10;;;;;;;45.20;20.92;;;;;;;2.27;100.00;103619.66;5075328;28;20040;-70
2022/02/26 08:50:36;;;;;;;45.20;19.83;;;;;;;2.40;100.00;103620.34;5057214;28;20037;-70
2022/02/26 08:53:02;;;;;;;43.63;19.52;;;;;;;2.52;100.00;103621.97;5040675;28;20467;-70
2022/02/26 08:55:27;;;;;;;37.75;18.63;;;;;;;2.66;100.00;103621.81;5074757;28;20116;-70
2022/02/26 08:57:52;;;;;;;39.63;16.90;;;;;;;2.87;100.00;103614.56;5074731;28;20033;-71
2022/02/26 09:00:18;;;;;;;32.05;16.15;;;;;;;3.09;100.00;103626.50;5075360;28;20074;-69
2022/02/26 09:02:43;;;;;;;35.72;16.25;;;;;;;3.60;100.00;103620.44;5074878;28;20028;-72
2022/02/26 09:05:10;;;;;;;31.40;13.70;;;;;;;3.97;100.00;103632.09;5075145;28;20101;-72
2022/02/26 09:07:36;;;;;;;24.70;12.60;;;;;;;4.59;100.00;103631.78;5074766;28;20557;-72
2022/02/26 09:10:02;;;;;;;26.00;12.32;;;;;;;5.22;92.90;103622.47;5074784;28;20108;-71
2022/02/26 09:12:27;;;;;;;29.27;11.40;;;;;;;6.16;83.94;103614.81;5074651;28;20476;-71
2022/02/26 09:14:53;;;;;;;23.35;10.88;;;;;;;7.49;81.01;103620.56;5074960;28;20107;-71
2022/02/26 09:17:18;;;;;;;21.25;10.88;;;;;;;8.72;71.02;103620.63;5074432;28;20040;-71
2022/02/26 09:19:44;;;;;;;25.40;10.05;;;;;;;9.52;65.18;103612.09;5074743;28;20457;-71
2022/02/26 09:22:09;;;;;;;22.75;9.43;;;;;;;10.53;62.00;103612.13;5074586;28;20119;-71
2022/02/26 09:24:35;;;;;;;19.65;9.45;;;;;;;11.55;59.31;103615.22;5074394;28;20423;-71
2022/02/26 09:27:01;;;;;;;20.20;9.10;;;;;;;12.31;55.36;103624.66;5074490;28;20032;-73
2022/02/26 09:29:26;;;;;;;26.23;10.07;;;;;;;12.86;53.86;103610.09;5074361;28;20449;-72
2022/02/26 09:31:53;;;;;;;17.20;8.38;;;;;;;13.42;51.85;103612.28;5056700;28;20033;-72
2022/02/26 09:34:29;;;;;;;15.98;8.68;;;;;;;13.44;49.02;103619.25;5056801;28;20102;-72
2022/02/26 09:36:55;;;;;;;17.67;8.38;;;;;;;13.56;48.04;103615.00;5075046;28;20029;-72
2022/02/26 09:39:20;;;;;;;18.48;9.32;;;;;;;13.55;49.51;103629.31;5074794;28;20078;-72
2022/02/26 09:41:50;;;;;;;18.83;9.40;;;;;;;14.15;46.76;103628.38;5074091;28;20036;-72
2022/02/26 09:44:16;;;;;;;18.10;8.60;;;;;;;14.28;47.88;103620.47;5074037;28;20035;-72
2022/02/26 09:46:43;;;;;;;18.63;8.27;;;;;;;14.67;46.85;103615.38;5074111;28;20033;-71
2022/02/26 09:49:09;;;;;;;17.60;7.18;;;;;;;14.90;43.35;103619.25;5074563;28;20032;-73
2022/02/26 09:51:38;;;;;;;14.60;6.63;;;;;;;14.25;44.53;103623.31;5073985;28;20074;-72
2022/02/26 09:54:03;;;;;;;15.23;6.60;;;;;;;14.92;45.17;103626.25;5073529;28;20384;-72
2022/02/26 09:56:29;;;;;;;15.35;6.22;;;;;;;14.45;44.46;103624.75;5073479;28;20039;-73
2022/02/26 09:58:54;;;;;;;16.45;6.82;;;;;;;14.26;44.86;103628.59;5073644;28;20041;-72
2022/02/26 10:01:20;;;;;;;16.05;6.38;;;;;;;14.72;44.53;103627.53;5073801;28;20115;-72
2022/02/26 10:03:45;;;;;;;15.15;6.65;;;;;;;14.42;44.00;103628.50;5056454;28;20457;-72
2022/02/26 10:06:11;;;;;;;12.57;6.35;;;;;;;14.96;43.85;103629.59;5074019;28;20037;-72
2022/02/26 10:08:38;;;;;;;15.48;6.90;;;;;;;14.27;44.03;103624.06;5073594;28;20090;-72
2022/02/26 10:11:06;;;;;;;16.95;6.68;;;;;;;14.77;43.51;103630.78;5073611;28;20025;-72
2022/02/26 10:13:42;;;;;;;14.50;6.40;;;;;;;14.56;44.29;103629.44;5074133;28;20032;-72
2022/02/26 10:16:08;;;;;;;24.15;7.43;;;;;;;15.31;42.21;103635.28;5073369;28;20033;-71
2022/02/26 10:18:34;;;;;;;13.90;5.80;;;;;;;14.92;41.69;103628.06;5073304;28;20024;-73
2022/02/26 10:21:00;;;;;;;16.38;5.55;;;;;;;14.43;42.65;103635.56;5074173;28;20036;-72
2022/02/26 10:23:26;;;;;;;17.10;5.60;;;;;;;14.28;42.35;103632.03;5055411;28;20040;-72
2022/02/26 10:26:04;;;;;;;20.73;6.57;;;;;;;14.15;42.94;103641.75;5073438;28;20089;-72
2022/02/26 10:28:33;;;;;;;10.43;5.15;;;;;;;14.63;41.55;103630.81;5073910;28;20032;-71
2022/02/26 10:31:04;;;;;;;14.90;5.78;;;;;;;14.88;42.61;103630.06;5072525;28;20487;-71
2022/02/26 10:33:29;;;;;;;12.80;5.72;;;;;;;14.97;40.49;103631.28;5055940;28;20051;-71
2022/02/26 10:36:04;;;;;;;13.65;5.55;;;;;;;14.96;41.89;103630.44;5073936;28;20024;-71
2022/02/26 10:38:32;;;;;;;15.25;5.90;;;;;;;14.92;41.04;103634.28;5073944;28;20032;-71
2022/02/26 10:41:09;;;;;;;16.48;5.85;;;;;;;15.16;39.96;103626.44;5073196;28;20032;-72
2022/02/26 10:43:49;;;;;;;12.98;5.55;;;;;;;15.60;39.92;103621.75;5073304;28;20032;-72
2022/02/26 10:46:15;;;;;;;13.10;5.35;;;;;;;15.92;38.90;103628.59;5072918;28;20056;-72
2022/02/26 10:48:41;;;;;;;11.93;4.68;;;;;;;16.12;37.34;103633.44;5073764;28;20511;-72
2022/02/26 10:51:17;;;;;;;13.07;4.82;;;;;;;16.36;37.61;103632.63;5073419;28;20047;-72
2022/02/26 10:53:44;;;;;;;12.60;5.35;;;;;;;16.17;37.71;103627.72;5073051;28;20431;-71
2022/02/26 10:56:10;;;;;;;17.58;5.45;;;;;;;15.66;38.58;103632.06;5072711;28;20024;-72
2022/02/26 10:58:36;;;;;;;15.82;5.82;;;;;;;15.86;37.41;103622.66;5073421;28;20449;-72
2022/02/26 11:01:07;;;;;;;18.73;5.90;;;;;;;15.67;38.51;103627.53;5073095;28;20054;-72
2022/02/26 11:03:34;;;;;;;;;;;;;;;14.86;39.62;103621.28;5073255;28;20028;-72
2022/02/26 11:06:00;;;;;;;18.02;4.50;;;;;;;14.90;39.75;103619.25;5072622;28;20347;-71
2022/02/26 11:08:26;;;;;;;13.23;4.40;;;;;;;13.93;39.58;103624.34;5073581;28;20032;-71
2022/02/26 11:10:53;;;;;;;13.27;4.60;;;;;;;13.55;40.27;103618.63;5072776;28;20142;-70
2022/02/26 11:13:21;;;;;;;15.52;5.03;;;;;;;12.74;43.29;103614.31;5072667;28;20028;-72